Daily Tabular Data
[Select Refresh to Update]


6/20/18
Time         Wind Dir   Wind Spd  Wind Gust     Hum In   Humidity    Temp In       Temp  Raw Barom   Tot Rain Wind Chill Heat Ix In Heat Index  Dew Point  DailyRain   HourRain   RainRate
                            mph        mph          %          %         F         F         in         in         F         F         F         F         in         in      in/hr
12:00am           198          0          0         56         89       72.0       60.9      29.10       4.96       60.9       73.4       66.4       57.6       0.00       0.00      0.000
12:30am           190          0          0         56         89       71.7       60.8      29.09       4.96       60.8       73.1       66.3       57.5       0.00       0.00      0.000
1:00am            242          0          0         57         90       71.4       60.5      29.09       4.96       60.5       72.9       66.1       57.6       0.00       0.00      0.000
1:30am            242          0          0         57         92       71.1       60.2      29.08       4.96       60.2       72.6       66.1       57.9       0.00       0.00      0.000
2:00am            336          0          0         58         92       71.1       60.3      29.08       4.96       60.3       72.7       66.2       58.0       0.00       0.00      0.000
2:30am            323          1          8         58         92       71.0       60.7      29.06       4.96       60.7       72.6       66.6       58.4       0.00       0.00      0.000
3:00am            332          0          5         58         92       70.9       60.5      29.06       4.96       60.5       72.5       66.4       58.2       0.00       0.00      0.000
3:30am             52          0          4         59         92       70.8       60.3      29.06       4.96       60.3       72.5       66.2       58.0       0.00       0.00      0.000
4:00am            160          0          0         59         92       70.6       60.9      29.05       4.96       60.9       72.3       66.8       58.6       0.00       0.00      0.000
4:30am            265          2          3         59         91       70.8       61.1      29.06       4.96       61.1       72.5       66.9       58.5       0.00       0.00      0.000
5:00am            258          0          4         58         92       71.2       60.6      29.06       4.96       60.6       72.8       66.5       58.3       0.00       0.00      0.000
5:30am            269          0          3         58         92       71.3       60.8      29.06       4.96       60.8       72.9       66.7       58.5       0.00       0.00      0.000
6:00am            193          0          0         58         92       71.5       60.4      29.07       4.96       60.4       73.1       66.3       58.1       0.00       0.00      0.000
6:30am            174          0          0         58         92       71.5       60.9      29.07       4.96       60.9       73.1       66.8       58.6       0.00       0.00      0.000
7:00am            180          0          0         57         92       71.6       61.4      29.08       4.96       61.4       73.1       67.3       59.1       0.00       0.00      0.000
7:30am            270          0          0         57         91       71.7       61.3      29.09       4.96       61.3       73.2       67.1       58.7       0.00       0.00      0.000
8:00am            190          0          3         57         90       71.8       61.9      29.10       4.96       61.9       73.3       67.5       58.9       0.00       0.00      0.000
8:30am            262          0          3         57         89       72.0       63.0      29.10       4.96       63.0       73.5       68.5       59.7       0.00       0.00      0.000
9:00am            296          0          4         58         86       71.5       63.9      29.11       4.96       63.9       73.1       69.0       59.6       0.00       0.00      0.000
9:30am            163          0          5         58         81       71.5       66.6      29.11       4.96       66.6       73.1       71.0       60.6       0.00       0.00      0.000
10:00am           275          2          8         58         74       72.1       69.6      29.10       4.96       69.6       73.7       73.0       61.0       0.00       0.00      0.000
10:30am           264          0          6         57         70       72.5       71.6      29.09       4.96       71.6       74.0       74.6       61.3       0.00       0.00      0.000
11:00am           170          2          6         57         64       73.0       74.9      29.09       4.96       74.9       74.5       77.2       61.9       0.00       0.00      0.000
11:30am           300          0          6         56         68       73.4       74.4      29.08       4.96       74.4       74.8       77.1       63.2       0.00       0.00      0.000
12:00pm           325          2          6         56         60       73.9       76.0      29.08       4.96       76.0       75.3       77.8       61.1       0.00       0.00      0.000
12:30pm           201          0          6         56         63       74.2       77.1      29.07       4.96       77.1       75.6       79.2       63.5       0.00       0.00      0.000
1:00pm            321          0          7         56         58       74.5       79.6      29.06       4.96       79.6       75.9       81.2       63.5       0.00       0.00      0.000
1:30pm            340          4         12         56         57       74.9       79.6      29.06       4.96       79.6       76.3       81.1       63.0       0.00       0.00      0.000
2:00pm            196          1          9         56         57       75.3       79.8      29.06       4.96       79.8       76.7       81.3       63.2       0.00       0.00      0.000
2:30pm            345          8         11         56         58       75.7       80.1      29.05       4.96       80.1       77.1       81.7       64.0       0.00       0.00      0.000
3:00pm            314          4         11         56         58       76.1       79.4      29.05       4.96       79.4       77.5       81.0       63.4       0.00       0.00      0.000
3:30pm            311          3          9         55         56       76.4       80.5      29.05       4.96       80.5       77.7       81.9       63.4       0.00       0.00      0.000
4:00pm            317          2          8         55         55       76.7       80.8      29.04       4.96       80.8       78.0       82.1       63.1       0.00       0.00      0.000
4:30pm            262          0          9         55         55       76.9       81.1      29.04       4.96       81.1       78.2       82.5       63.4       0.00       0.00      0.000
5:00pm            182          0         10         54         54       77.2       80.8      29.04       4.96       80.8       78.4       82.0       62.6       0.00       0.00      0.000
5:30pm            205          5         10         53         55       77.4       79.8      29.04       4.96       79.8       78.5       81.1       62.2       0.00       0.00      0.000
6:00pm            268          8         12         49         60       76.9       76.3      29.05       4.96       76.3       77.6       78.1       61.4       0.00       0.00      0.000
6:30pm            187          2         10         52         67       77.3       73.1      29.05       4.96       73.1       78.3       75.7       61.5       0.00       0.00      0.000
7:00pm            231          7         11         52         72       77.6       70.5      29.07       4.96       70.5       78.6       73.7       61.0       0.00       0.00      0.000
7:30pm            168          7         11         52         77       76.9       67.5      29.08       4.96       67.5       77.9       71.3       60.0       0.00       0.00      0.000
8:00pm            187          1          9         54         83       75.8       65.2      29.08       4.96       65.2       77.0       69.8       59.9       0.00       0.00      0.000
8:30pm            171          6          7         55         84       75.0       64.7      29.08       4.96       64.7       76.3       69.5       59.8       0.00       0.00      0.000
9:00pm            178          3          7         56         85       74.4       65.6      29.09       4.96       65.6       75.8       70.5       61.0       0.00       0.00      0.000
9:30pm            176          3          6         56         85       74.4       64.3      29.10       4.96       64.3       75.8       69.2       59.7       0.00       0.00      0.000
10:00pm           174          2          6         56         88       74.5       65.5      29.10       4.96       65.5       75.9       70.8       61.9       0.00       0.00      0.000
10:30pm           169          2          6         55         85       74.7       64.0      29.10       4.96       64.0       76.0       68.9       59.4       0.00       0.00      0.000
11:00pm           220          3          4         55         88       74.7       64.6      29.10       4.96       64.6       76.0       69.9       61.0       0.00       0.00      0.000
11:30pm           184          0          5         55         88       74.6       63.3      29.10       4.96       63.3       75.9       68.6       59.7       0.00       0.00      0.000